createdAt,value
2022-12-05T00:01:23.205Z,26.90
2022-12-05T00:03:50.851Z,31.23
2022-12-05T00:06:17.922Z,22.60
2022-12-05T00:08:44.475Z,28.42
2022-12-05T00:11:14.805Z,24.85
2022-12-05T00:13:42.447Z,27.58
2022-12-05T00:16:09.799Z,22.67
2022-12-05T00:18:36.330Z,27.65
2022-12-05T00:21:03.217Z,26.40
2022-12-05T00:23:30.211Z,24.02
2022-12-05T00:25:56.603Z,25.67
2022-12-05T00:28:23.720Z,26.00
2022-12-05T00:30:50.113Z,26.80
2022-12-05T00:33:16.467Z,25.92
2022-12-05T00:35:42.920Z,21.98
2022-12-05T00:38:09.316Z,25.83
2022-12-05T00:40:36.451Z,23.45
2022-12-05T00:43:02.802Z,25.92
2022-12-05T00:45:29.215Z,23.20
2022-12-05T00:47:55.664Z,23.10
2022-12-05T00:50:22.038Z,23.00
2022-12-05T00:52:48.503Z,24.52
2022-12-05T00:55:14.911Z,24.63
2022-12-05T00:57:41.298Z,22.98
2022-12-05T01:00:08.036Z,24.13
2022-12-05T01:02:34.390Z,22.10
2022-12-05T01:05:00.797Z,23.40
2022-12-05T01:07:27.171Z,27.23
2022-12-05T01:09:53.639Z,27.67
2022-12-05T01:12:20.019Z,25.50
2022-12-05T01:14:46.399Z,25.02
2022-12-05T01:17:12.766Z,23.13
2022-12-05T01:19:39.158Z,25.67
2022-12-05T01:22:05.518Z,25.13
2022-12-05T01:24:31.897Z,25.30
2022-12-05T01:26:58.430Z,23.90
2022-12-05T01:29:25.608Z,28.10
2022-12-05T01:31:52.475Z,30.10
2022-12-05T01:34:19.222Z,24.42
2022-12-05T01:36:46.008Z,25.75
2022-12-05T01:39:12.629Z,26.65
2022-12-05T01:41:40.688Z,24.92
2022-12-05T01:44:27.359Z,27.00
2022-12-05T01:46:54.189Z,24.90
2022-12-05T01:49:26.495Z,24.98
2022-12-05T01:51:55.125Z,24.63
2022-12-05T01:54:22.792Z,23.98
2022-12-05T01:56:50.915Z,24.27
2022-12-05T01:59:18.786Z,25.98
2022-12-05T02:01:45.300Z,22.67
2022-12-05T02:04:11.731Z,21.15
2022-12-05T02:06:38.107Z,21.50
2022-12-05T02:09:04.929Z,22.27
2022-12-05T02:11:32.401Z,22.67
2022-12-05T02:14:07.242Z,21.55
2022-12-05T02:16:45.395Z,21.15
2022-12-05T02:19:14.998Z,21.05
2022-12-05T02:22:04.655Z,22.02
2022-12-05T02:24:49.646Z,23.50
2022-12-05T02:27:22.157Z,25.77
2022-12-05T02:30:02.020Z,21.98
2022-12-05T02:32:34.683Z,22.92
2022-12-05T02:35:22.994Z,22.35
2022-12-05T02:37:54.356Z,29.10
2022-12-05T02:40:20.747Z,27.92
2022-12-05T02:42:55.435Z,22.63
2022-12-05T02:45:24.961Z,27.42
2022-12-05T02:47:52.788Z,22.58
2022-12-05T02:50:21.624Z,21.30
2022-12-05T02:52:49.046Z,22.77
2022-12-05T02:55:16.509Z,26.17
2022-12-05T02:57:49.096Z,24.27
2022-12-05T03:00:15.826Z,24.45
2022-12-05T03:02:42.605Z,22.85
2022-12-05T03:05:17.404Z,26.30
2022-12-05T03:07:45.801Z,22.33
2022-12-05T03:10:13.962Z,26.70
2022-12-05T03:12:47.980Z,22.73
2022-12-05T03:15:16.719Z,22.88
2022-12-05T03:18:18.794Z,21.65
2022-12-05T03:20:47.814Z,17.83
2022-12-05T03:23:18.555Z,23.10
2022-12-05T03:25:44.954Z,18.27
2022-12-05T03:28:18.992Z,17.75
2022-12-05T03:30:47.822Z,19.35
2022-12-05T03:33:15.877Z,17.88
2022-12-05T03:35:45.669Z,15.77
2022-12-05T03:38:41.572Z,14.85
2022-12-05T03:41:23.047Z,12.60
2022-12-05T03:43:54.379Z,15.32
2022-12-05T03:46:32.731Z,13.60
2022-12-05T03:49:03.496Z,13.15
2022-12-05T03:51:33.210Z,12.02
2022-12-05T03:54:02.483Z,11.70
2022-12-05T03:56:37.051Z,12.30
2022-12-05T03:59:22.006Z,11.60
2022-12-05T04:01:48.827Z,14.50
2022-12-05T04:04:18.357Z,13.23
2022-12-05T04:06:46.721Z,12.63
2022-12-05T04:09:18.495Z,14.13
2022-12-05T04:11:47.379Z,15.52
2022-12-05T04:14:17.124Z,31.85
2022-12-05T04:17:05.593Z,14.02
2022-12-05T04:19:59.444Z,14.55
2022-12-05T04:22:26.335Z,15.57
2022-12-05T04:25:12.864Z,13.82
2022-12-05T04:27:42.578Z,15.80
2022-12-05T04:30:11.756Z,17.15
2022-12-05T04:32:56.748Z,18.60
2022-12-05T04:35:25.754Z,16.25
2022-12-05T04:37:53.807Z,16.13
2022-12-05T04:40:23.112Z,16.33
2022-12-05T04:42:50.237Z,15.50
2022-12-05T04:45:18.826Z,14.73
2022-12-05T04:47:48.402Z,16.65
2022-12-05T04:50:16.305Z,15.48
2022-12-05T04:52:44.918Z,17.15
2022-12-05T04:55:20.577Z,14.93
2022-12-05T04:57:52.896Z,14.55
2022-12-05T05:03:19.098Z,14.85
2022-12-05T05:05:48.431Z,16.35
2022-12-05T05:08:23.410Z,14.50
2022-12-05T05:11:08.734Z,15.43
2022-12-05T05:13:35.091Z,17.00
2022-12-05T05:16:01.560Z,15.27
2022-12-05T05:18:28.091Z,14.40
2022-12-05T05:20:54.584Z,15.80
2022-12-05T05:23:21.008Z,13.45
2022-12-05T05:25:52.068Z,14.60
2022-12-05T05:28:18.487Z,14.90
2022-12-05T05:30:45.141Z,12.23
2022-12-05T05:33:11.972Z,14.52
2022-12-05T05:35:38.879Z,17.60
2022-12-05T05:38:05.411Z,12.50
2022-12-05T05:40:34.620Z,12.55
2022-12-05T05:43:01.007Z,15.75
2022-12-05T05:45:27.438Z,14.52
2022-12-05T05:47:53.825Z,12.40
2022-12-05T05:50:21.981Z,14.43
2022-12-05T05:52:48.982Z,16.17
2022-12-05T05:55:15.439Z,12.90
2022-12-05T05:57:41.815Z,11.85
2022-12-05T06:00:08.941Z,12.52
2022-12-05T06:02:35.747Z,14.80
2022-12-05T06:05:02.327Z,13.05
2022-12-05T06:07:29.145Z,13.18
2022-12-05T06:09:56.266Z,13.40
2022-12-05T06:12:22.936Z,15.98
2022-12-05T06:14:50.045Z,13.43
2022-12-05T06:17:16.719Z,15.10
2022-12-05T06:19:43.226Z,15.18
2022-12-05T06:22:09.749Z,13.40
2022-12-05T06:24:36.228Z,11.10
2022-12-05T06:27:02.800Z,12.20
2022-12-05T06:29:33.487Z,10.80
2022-12-05T06:32:00.473Z,13.38
2022-12-05T06:34:27.165Z,11.43
2022-12-05T06:36:53.548Z,13.65
2022-12-05T06:39:20.153Z,11.25
2022-12-05T06:41:46.572Z,13.55
2022-12-05T06:44:12.942Z,10.63
2022-12-05T06:46:39.401Z,11.35
2022-12-05T06:49:05.787Z,11.43
2022-12-05T06:51:32.260Z,12.55
2022-12-05T06:53:58.641Z,12.95
2022-12-05T06:56:25.153Z,10.52
2022-12-05T06:58:53.435Z,12.20
2022-12-05T07:01:39.350Z,14.07
2022-12-05T07:04:12.139Z,10.60
2022-12-05T07:06:39.124Z,12.23
2022-12-05T07:09:05.661Z,10.75
2022-12-05T07:11:32.282Z,12.25
2022-12-05T07:13:58.687Z,11.98
2022-12-05T07:16:25.191Z,11.25
2022-12-05T07:18:51.663Z,11.15
2022-12-05T07:21:18.692Z,12.00
2022-12-05T07:23:45.848Z,11.00
2022-12-05T07:26:14.105Z,14.70
2022-12-05T07:28:40.678Z,14.30
2022-12-05T07:31:08.227Z,11.05
2022-12-05T07:33:35.031Z,18.83
2022-12-05T07:36:02.640Z,11.20
2022-12-05T07:38:29.344Z,11.00
2022-12-05T07:40:57.995Z,13.40
2022-12-05T07:43:24.537Z,13.60
2022-12-05T07:45:51.262Z,14.73
2022-12-05T07:48:18.947Z,15.52
2022-12-05T07:50:45.706Z,14.13
2022-12-05T07:53:12.114Z,14.65
2022-12-05T07:55:39.213Z,14.65
2022-12-05T07:58:05.703Z,17.60
2022-12-05T08:00:32.279Z,14.68
2022-12-05T08:02:58.837Z,17.58
2022-12-05T08:05:25.336Z,18.55
2022-12-05T08:07:51.819Z,17.73
2022-12-05T08:10:18.384Z,22.00
2022-12-05T08:12:44.802Z,22.58
2022-12-05T08:15:11.310Z,20.55
2022-12-05T08:17:37.775Z,20.52
2022-12-05T08:20:04.497Z,18.98
2022-12-05T08:22:30.923Z,20.85
2022-12-05T08:24:57.362Z,20.02
2022-12-05T08:27:23.957Z,21.75
2022-12-05T08:29:50.337Z,24.15
2022-12-05T08:32:16.750Z,23.30
2022-12-05T08:34:43.154Z,25.00
2022-12-05T08:37:10.914Z,22.98
2022-12-05T08:39:38.830Z,21.88
2022-12-05T08:42:05.784Z,26.52
2022-12-05T08:44:32.216Z,28.90
2022-12-05T08:46:58.601Z,23.83
2022-12-05T08:49:25.005Z,26.98
2022-12-05T08:51:51.449Z,30.10
2022-12-05T08:54:17.960Z,22.80
2022-12-05T08:56:44.470Z,24.50
2022-12-05T08:59:10.923Z,27.33
2022-12-05T09:01:39.347Z,24.02
2022-12-05T09:04:06.489Z,25.20
2022-12-05T09:06:34.264Z,24.85
2022-12-05T09:09:02.716Z,26.65
2022-12-05T09:11:30.439Z,28.63
2022-12-05T09:13:57.820Z,27.05
2022-12-05T09:16:25.950Z,26.55
2022-12-05T09:18:52.870Z,28.38
2022-12-05T09:21:21.051Z,23.45
2022-12-05T09:23:47.953Z,26.40
2022-12-05T09:26:15.354Z,28.48
2022-12-05T09:28:42.259Z,25.30
2022-12-05T09:31:13.063Z,27.65
2022-12-05T09:33:39.565Z,29.48
2022-12-05T09:36:06.884Z,24.52
2022-12-05T09:38:34.483Z,27.27
2022-12-05T09:41:21.737Z,27.10
2022-12-05T09:43:55.041Z,26.92
2022-12-05T09:46:37.069Z,24.90
2022-12-05T09:49:04.516Z,28.48
2022-12-05T09:51:31.101Z,22.92
2022-12-05T09:53:57.557Z,25.58
2022-12-05T09:56:30.614Z,22.77
2022-12-05T09:58:58.007Z,23.63
2022-12-05T10:01:42.414Z,28.13
2022-12-05T10:04:29.344Z,27.88
2022-12-05T10:06:55.828Z,24.65
2022-12-05T10:09:41.320Z,25.77
2022-12-05T10:12:10.791Z,29.55
2022-12-05T10:14:37.192Z,28.60
2022-12-05T10:17:08.915Z,31.88
2022-12-05T10:19:39.651Z,28.42
2022-12-05T10:22:24.763Z,32.63
2022-12-05T10:24:53.014Z,25.17
2022-12-05T10:27:20.888Z,27.42
2022-12-05T10:29:53.869Z,26.88
2022-12-05T10:32:23.853Z,29.92
2022-12-05T10:34:50.691Z,28.33
2022-12-05T10:37:21.883Z,26.10
2022-12-05T10:39:49.659Z,22.33
2022-12-05T10:42:17.457Z,28.52
2022-12-05T10:44:44.033Z,25.02
2022-12-05T10:47:11.482Z,23.88
2022-12-05T10:49:38.421Z,24.80
2022-12-05T10:52:05.541Z,26.33
2022-12-05T10:54:37.046Z,25.70
2022-12-05T10:57:19.452Z,23.30
2022-12-05T10:59:46.759Z,21.42
2022-12-05T11:02:19.400Z,23.38
2022-12-05T11:04:46.024Z,23.77
2022-12-05T11:07:27.212Z,21.85
2022-12-05T11:09:53.975Z,23.58
2022-12-05T11:12:35.973Z,22.27
2022-12-05T11:15:24.899Z,19.00
2022-12-05T11:17:52.806Z,21.17
2022-12-05T11:20:19.198Z,21.85
2022-12-05T11:22:50.428Z,24.35
2022-12-05T11:25:29.147Z,19.98
2022-12-05T11:28:00.990Z,19.52
2022-12-05T11:30:29.157Z,18.05
2022-12-05T11:33:12.463Z,18.70
2022-12-05T11:35:39.132Z,14.45
2022-12-05T11:38:05.665Z,16.88
2022-12-05T11:40:47.455Z,14.77
2022-12-05T11:43:22.869Z,13.30
2022-12-05T11:46:01.604Z,12.18
2022-12-05T11:48:27.989Z,9.93
2022-12-05T11:51:00.506Z,14.43
2022-12-05T11:53:42.192Z,11.60
2022-12-05T11:56:17.387Z,9.73
2022-12-05T11:58:54.724Z,12.60
2022-12-05T12:01:24.146Z,12.65
2022-12-05T12:04:09.874Z,11.10
2022-12-05T12:06:47.278Z,9.60
2022-12-05T12:09:28.874Z,12.00
2022-12-05T12:12:06.256Z,13.52
2022-12-05T12:14:38.755Z,11.65
2022-12-05T12:17:28.382Z,14.15
2022-12-05T12:20:16.130Z,11.95
2022-12-05T12:22:52.371Z,10.95
2022-12-05T12:25:31.697Z,10.90
2022-12-05T12:28:05.322Z,9.48
2022-12-05T12:31:01.037Z,13.43
2022-12-05T12:33:33.714Z,12.18
2022-12-05T12:36:09.458Z,10.40
2022-12-05T12:38:54.380Z,10.70
2022-12-05T12:41:39.630Z,10.55
2022-12-05T12:44:06.017Z,6.32
2022-12-05T12:46:41.623Z,9.50
2022-12-05T12:49:18.088Z,9.38
2022-12-05T12:51:48.788Z,10.38
2022-12-05T12:54:15.201Z,8.77
2022-12-05T12:56:55.398Z,6.35
2022-12-05T12:59:32.052Z,7.38
2022-12-05T13:02:03.489Z,11.90
2022-12-05T13:04:33.435Z,8.07
2022-12-05T13:07:03.885Z,6.60
2022-12-05T13:09:33.792Z,8.05
2022-12-05T13:12:04.860Z,4.60
2022-12-05T13:14:32.293Z,5.35
2022-12-05T13:16:59.040Z,4.45
2022-12-05T13:19:30.551Z,6.45
2022-12-05T13:22:00.734Z,4.22
2022-12-05T13:24:28.284Z,5.15
2022-12-05T13:26:57.344Z,7.63
2022-12-05T13:29:42.860Z,5.03
2022-12-05T13:32:27.786Z,11.98
2022-12-05T13:34:55.180Z,10.90
2022-12-05T13:37:44.671Z,3.80
2022-12-05T13:40:41.717Z,4.80
2022-12-05T13:43:08.866Z,4.63
2022-12-05T13:45:35.515Z,8.27
2022-12-05T13:48:01.952Z,4.97
2022-12-05T13:50:49.386Z,6.30
2022-12-05T13:53:27.225Z,2.42
2022-12-05T13:55:58.449Z,4.00
2022-12-05T13:58:24.915Z,4.18
2022-12-05T14:00:51.672Z,4.53
2022-12-05T14:03:38.051Z,2.85
2022-12-05T14:06:06.454Z,3.15
2022-12-05T14:08:35.879Z,3.78
2022-12-05T14:11:03.905Z,3.00
2022-12-05T14:13:31.220Z,4.72
2022-12-05T14:16:16.651Z,6.32
2022-12-05T14:18:49.849Z,5.55
2022-12-05T14:21:25.070Z,5.00
2022-12-05T14:24:00.656Z,3.03
2022-12-05T14:26:33.016Z,6.90
2022-12-05T14:29:17.518Z,3.03
2022-12-05T14:31:50.126Z,2.78
2022-12-05T14:34:25.709Z,3.83
2022-12-05T14:36:57.591Z,6.57
2022-12-05T14:39:38.711Z,3.80
2022-12-05T14:42:23.076Z,3.13
2022-12-05T14:44:51.355Z,3.38
2022-12-05T14:47:19.562Z,4.60
2022-12-05T14:49:58.516Z,3.03
2022-12-05T14:52:26.538Z,33.10
2022-12-05T14:54:55.101Z,3.17
2022-12-05T14:57:21.563Z,7.32
2022-12-05T14:59:56.593Z,3.67
2022-12-05T15:02:27.017Z,3.35
2022-12-05T15:05:00.563Z,3.20
2022-12-05T15:07:33.996Z,3.70
2022-12-05T15:10:02.515Z,3.10
2022-12-05T15:12:40.135Z,3.45
2022-12-05T15:15:13.717Z,4.53
2022-12-05T15:17:45.483Z,3.08
2022-12-05T15:20:17.748Z,3.05
2022-12-05T15:22:44.202Z,2.63
2022-12-05T15:25:24.276Z,5.80
2022-12-05T15:28:01.485Z,4.07
2022-12-05T15:30:28.760Z,5.18
2022-12-05T15:32:59.481Z,5.05
2022-12-05T15:35:27.487Z,5.28
2022-12-05T15:37:56.106Z,6.57
2022-12-05T15:40:23.521Z,4.78
2022-12-05T15:42:51.003Z,5.43
2022-12-05T15:45:21.708Z,4.40
2022-12-05T15:47:49.682Z,8.23
2022-12-05T15:50:19.885Z,7.93
2022-12-05T15:52:50.656Z,16.15
2022-12-05T15:55:21.001Z,9.55
2022-12-05T15:57:50.307Z,8.88
2022-12-05T16:00:18.521Z,5.25
2022-12-05T16:02:47.691Z,4.55
2022-12-05T16:05:34.634Z,4.03
2022-12-05T16:08:02.112Z,4.15
2022-12-05T16:10:29.844Z,4.15
2022-12-05T16:13:02.430Z,4.88
2022-12-05T16:15:28.977Z,4.82
2022-12-05T16:17:56.310Z,7.70
2022-12-05T16:20:24.438Z,4.95
2022-12-05T16:22:53.041Z,4.97
2022-12-05T16:25:27.461Z,3.95
2022-12-05T16:28:02.654Z,5.03
2022-12-05T16:30:29.760Z,4.50
2022-12-05T16:33:00.960Z,4.20
2022-12-05T16:35:30.241Z,6.28
2022-12-05T16:38:03.818Z,5.50
2022-12-05T16:40:30.242Z,4.47
2022-12-05T16:43:16.669Z,6.40
2022-12-05T16:45:44.397Z,5.68
2022-12-05T16:48:14.826Z,5.32
2022-12-05T16:50:41.661Z,6.50
2022-12-05T16:53:08.072Z,8.68
2022-12-05T16:55:37.720Z,8.80
2022-12-05T16:58:04.699Z,10.30
2022-12-05T17:00:31.505Z,8.88
2022-12-05T17:03:12.136Z,6.35
2022-12-05T17:05:44.477Z,7.00
2022-12-05T17:08:11.031Z,5.82
2022-12-05T17:10:37.609Z,4.22
2022-12-05T17:13:04.163Z,5.00
2022-12-05T17:15:30.793Z,4.95
2022-12-05T17:17:57.369Z,5.30
2022-12-05T17:20:23.744Z,5.93
2022-12-05T17:22:50.199Z,5.68
2022-12-05T17:25:18.350Z,4.80
2022-12-05T17:27:44.752Z,6.05
2022-12-05T17:30:11.237Z,6.95
2022-12-05T17:32:37.636Z,6.20
2022-12-05T17:35:12.112Z,7.00
2022-12-05T17:37:38.535Z,5.78
2022-12-05T17:40:05.738Z,7.20
2022-12-05T17:42:32.175Z,7.63
2022-12-05T17:44:59.093Z,6.57
2022-12-05T17:47:25.838Z,7.15
2022-12-05T17:49:52.358Z,7.18
2022-12-05T17:52:22.702Z,5.70
2022-12-05T17:54:49.283Z,6.57
2022-12-05T17:57:15.763Z,6.13
2022-12-05T17:59:42.261Z,7.30
2022-12-05T18:02:09.877Z,8.95
2022-12-05T18:04:36.924Z,7.28
2022-12-05T18:07:03.386Z,6.15
2022-12-05T18:09:29.995Z,7.75
2022-12-05T18:11:56.837Z,4.97
2022-12-05T18:14:23.221Z,5.35
2022-12-05T18:16:49.674Z,4.85
2022-12-05T18:19:16.141Z,5.47
2022-12-05T18:21:42.646Z,5.05
2022-12-05T18:24:09.079Z,5.47
2022-12-05T18:26:35.513Z,4.55
2022-12-05T18:29:01.981Z,8.52
2022-12-05T18:31:29.210Z,5.53
2022-12-05T18:33:55.719Z,7.22
2022-12-05T18:36:22.165Z,8.18
2022-12-05T18:38:49.743Z,6.53
2022-12-05T18:41:16.130Z,6.82
2022-12-05T18:43:42.563Z,6.32
2022-12-05T18:46:09.044Z,7.35
2022-12-05T18:48:41.718Z,10.07
2022-12-05T18:51:12.529Z,8.45
2022-12-05T18:53:39.418Z,5.55
2022-12-05T18:56:25.622Z,10.50
2022-12-05T18:58:56.840Z,7.38
2022-12-05T19:01:23.729Z,8.25
2022-12-05T19:03:50.442Z,6.53
2022-12-05T19:06:18.144Z,11.23
2022-12-05T19:08:44.838Z,8.35
2022-12-05T19:11:15.380Z,10.95
2022-12-05T19:13:41.927Z,10.32
2022-12-05T19:16:10.108Z,7.30
2022-12-05T19:18:36.931Z,7.10
2022-12-05T19:21:03.633Z,6.40
2022-12-05T19:23:31.917Z,5.80
2022-12-05T19:26:02.276Z,6.55
2022-12-05T19:28:29.143Z,4.90
2022-12-05T19:31:04.874Z,6.78
2022-12-05T19:33:32.119Z,8.85
2022-12-05T19:36:01.587Z,6.43
2022-12-05T19:38:30.164Z,5.28
2022-12-05T19:40:57.126Z,6.72
2022-12-05T19:43:23.602Z,6.35
2022-12-05T19:45:52.017Z,6.95
2022-12-05T19:48:18.814Z,7.03
2022-12-05T19:50:45.231Z,6.47
2022-12-05T19:53:12.353Z,9.45
2022-12-05T19:55:38.899Z,8.65
2022-12-05T19:58:05.313Z,8.85
2022-12-05T20:00:32.200Z,6.72
2022-12-05T20:02:59.054Z,9.38
2022-12-05T20:05:25.461Z,8.13
2022-12-05T20:07:52.247Z,5.65
2022-12-05T20:10:19.216Z,5.82
2022-12-05T20:12:45.745Z,6.85
2022-12-05T20:15:12.371Z,7.55
2022-12-05T20:17:38.769Z,7.95
2022-12-05T20:20:05.517Z,8.00
2022-12-05T20:22:31.931Z,5.10
2022-12-05T20:24:59.371Z,5.72
2022-12-05T20:27:25.892Z,5.13
2022-12-05T20:29:52.440Z,5.63
2022-12-05T20:32:18.861Z,5.68
2022-12-05T20:34:45.267Z,5.55
2022-12-05T20:37:11.693Z,5.95
2022-12-05T20:39:38.097Z,5.18
2022-12-05T20:42:04.570Z,7.30
2022-12-05T20:44:31.277Z,5.75
2022-12-05T20:46:57.930Z,8.05
2022-12-05T20:49:24.342Z,5.78
2022-12-05T20:51:50.997Z,6.60
2022-12-05T20:54:18.309Z,7.93
2022-12-05T20:56:45.516Z,9.02
2022-12-05T20:59:12.469Z,9.35
2022-12-05T21:01:39.252Z,8.38
2022-12-05T21:04:06.903Z,7.07
2022-12-05T21:06:37.863Z,5.97
2022-12-05T21:09:05.689Z,7.68
2022-12-05T21:11:32.393Z,7.70
2022-12-05T21:14:04.978Z,6.05
2022-12-05T21:16:31.450Z,6.50
2022-12-05T21:18:59.001Z,6.05
2022-12-05T21:21:26.930Z,5.10
2022-12-05T21:23:57.556Z,6.88
2022-12-05T21:26:25.125Z,4.53
2022-12-05T21:28:51.689Z,4.72
2022-12-05T21:31:20.227Z,4.90
2022-12-05T21:33:48.546Z,4.07
2022-12-05T21:36:15.321Z,4.55
2022-12-05T21:38:41.730Z,3.83
2022-12-05T21:41:08.144Z,3.97
2022-12-05T21:43:35.206Z,5.80
2022-12-05T21:46:01.844Z,4.07
2022-12-05T21:48:28.451Z,3.58
2022-12-05T21:50:55.135Z,2.95
2022-12-05T21:53:22.032Z,3.63
2022-12-05T21:55:48.726Z,3.88
2022-12-05T21:58:15.112Z,2.90
2022-12-05T22:00:42.115Z,3.08
2022-12-05T22:03:13.277Z,4.00
2022-12-05T22:05:39.869Z,3.55
2022-12-05T22:08:06.957Z,2.80
2022-12-05T22:10:34.246Z,4.22
2022-12-05T22:13:00.674Z,3.50
2022-12-05T22:15:27.083Z,3.60
2022-12-05T22:17:53.513Z,3.67
2022-12-05T22:20:19.916Z,3.22
2022-12-05T22:22:46.276Z,3.17
2022-12-05T22:25:12.683Z,4.20
2022-12-05T22:27:39.060Z,4.93
2022-12-05T22:30:05.815Z,4.20
2022-12-05T22:32:32.251Z,4.57
2022-12-05T22:35:03.479Z,6.53
2022-12-05T22:37:30.512Z,5.03
2022-12-05T22:39:57.341Z,4.65
2022-12-05T22:42:25.540Z,4.55
2022-12-05T22:44:51.987Z,6.25
2022-12-05T22:47:18.397Z,4.35
2022-12-05T22:49:44.809Z,4.15
2022-12-05T22:52:11.214Z,5.65
2022-12-05T22:54:37.616Z,6.50
2022-12-05T22:57:04.018Z,5.05
2022-12-05T22:59:30.374Z,5.22
2022-12-05T23:01:57.070Z,4.28
2022-12-05T23:04:23.953Z,4.20
2022-12-05T23:06:50.468Z,4.65
2022-12-05T23:09:17.008Z,6.80
2022-12-05T23:11:43.426Z,4.10
2022-12-05T23:14:09.880Z,5.97
2022-12-05T23:16:37.695Z,5.07
2022-12-05T23:19:05.303Z,4.82
2022-12-05T23:21:36.272Z,4.90
2022-12-05T23:24:04.460Z,7.00
2022-12-05T23:26:33.513Z,5.05
2022-12-05T23:28:59.924Z,6.82
2022-12-05T23:31:26.390Z,6.90
2022-12-05T23:33:52.899Z,5.55
2022-12-05T23:36:19.777Z,5.07
2022-12-05T23:38:46.474Z,6.05
2022-12-05T23:41:15.812Z,6.57
2022-12-05T23:43:42.635Z,8.07
2022-12-05T23:46:09.928Z,7.50
2022-12-05T23:48:36.812Z,4.75
2022-12-05T23:51:05.279Z,4.20
2022-12-05T23:53:32.903Z,6.25
2022-12-05T23:56:03.182Z,6.00
2022-12-05T23:58:30.760Z,5.18
